createdAt,value
2023-04-21T00:03:28.241Z,32.19
2023-04-21T00:08:50.918Z,32.18
2023-04-21T00:14:12.817Z,32.54
2023-04-21T00:19:35.494Z,32.60
2023-04-21T00:24:57.343Z,32.12
2023-04-21T00:30:19.274Z,32.44
2023-04-21T00:35:41.243Z,32.16
2023-04-21T00:41:03.285Z,32.16
2023-04-21T00:46:25.123Z,32.39
2023-04-21T00:51:47.171Z,32.52
2023-04-21T00:57:11.068Z,32.25
2023-04-21T01:02:36.968Z,32.17
2023-04-21T01:07:58.944Z,32.62
2023-04-21T01:13:22.351Z,32.23
2023-04-21T01:18:45.591Z,32.55
2023-04-21T01:24:07.655Z,32.72
2023-04-21T01:29:34.193Z,32.71
2023-04-21T01:34:56.997Z,32.72
2023-04-21T01:40:18.817Z,32.43
2023-04-21T01:45:40.774Z,32.62
2023-04-21T01:51:02.592Z,32.52
2023-04-21T01:56:24.355Z,32.73
2023-04-21T02:01:46.248Z,32.44
2023-04-21T02:07:08.357Z,32.87
2023-04-21T02:12:30.160Z,32.77
2023-04-21T02:17:51.943Z,32.73
2023-04-21T02:23:13.867Z,32.60
2023-04-21T02:28:35.640Z,32.74
2023-04-21T02:33:57.545Z,32.48
2023-04-21T02:39:19.490Z,32.55
2023-04-21T02:44:43.075Z,32.55
2023-04-21T02:50:05.215Z,32.61
2023-04-21T02:55:27.122Z,32.78
2023-04-21T03:00:48.955Z,32.72
2023-04-21T03:06:10.780Z,32.64
2023-04-21T03:11:32.566Z,32.82
2023-04-21T03:16:54.620Z,33.01
2023-04-21T03:22:16.567Z,32.69
2023-04-21T03:27:38.443Z,33.03
2023-04-21T03:33:00.997Z,32.76
2023-04-21T03:38:22.797Z,32.79
2023-04-21T03:43:44.654Z,32.84
2023-04-21T03:49:06.467Z,32.69
2023-04-21T03:54:28.482Z,32.83
2023-04-21T03:59:50.770Z,33.19
2023-04-21T04:05:12.763Z,33.17
2023-04-21T04:10:34.654Z,32.86
2023-04-21T04:15:56.535Z,32.72
2023-04-21T04:21:18.322Z,32.78
2023-04-21T04:26:40.324Z,32.77
2023-04-21T04:32:04.397Z,32.79
2023-04-21T04:37:26.942Z,33.28
2023-04-21T04:42:49.493Z,33.07
2023-04-21T04:48:11.440Z,32.85
2023-04-21T04:53:33.295Z,33.19
2023-04-21T04:58:55.124Z,33.05
2023-04-21T05:04:17.729Z,33.18
2023-04-21T05:09:39.930Z,33.32
2023-04-21T05:15:01.780Z,32.56
2023-04-21T05:20:23.606Z,32.03
2023-04-21T05:25:45.549Z,32.01
2023-04-21T05:31:07.320Z,31.52
2023-04-21T05:36:30.669Z,31.89
2023-04-21T05:41:52.541Z,31.85
2023-04-21T05:47:14.301Z,31.68
2023-04-21T05:52:37.533Z,32.23
2023-04-21T05:57:59.402Z,31.98
2023-04-21T06:03:21.395Z,32.40
2023-04-21T06:08:43.279Z,32.28
2023-04-21T06:14:05.145Z,32.80
2023-04-21T06:19:26.979Z,32.51
2023-04-21T06:24:49.020Z,32.56
2023-04-21T06:30:11.050Z,32.74
2023-04-21T06:35:32.937Z,32.71
2023-04-21T06:40:55.021Z,33.21
2023-04-21T06:46:17.020Z,33.12
2023-04-21T06:51:39.644Z,33.30
2023-04-21T06:57:01.440Z,33.33
2023-04-21T07:02:23.319Z,32.74
2023-04-21T07:07:45.220Z,32.50
2023-04-21T07:13:09.555Z,31.87
2023-04-21T07:18:32.777Z,31.25
2023-04-21T07:23:54.570Z,30.75
2023-04-21T07:29:16.503Z,30.47
2023-04-21T07:34:38.642Z,30.33
2023-04-21T07:40:00.540Z,30.17
2023-04-21T07:45:22.393Z,30.15
2023-04-21T07:50:44.361Z,29.69
2023-04-21T07:56:08.026Z,29.83
2023-04-21T08:01:29.863Z,30.29
2023-04-21T08:06:52.045Z,30.00
2023-04-21T08:12:14.122Z,30.30
2023-04-21T08:17:36.229Z,29.91
2023-04-21T08:22:58.647Z,30.08
2023-04-21T08:28:20.465Z,29.90
2023-04-21T08:33:53.965Z,30.17
2023-04-21T08:39:22.910Z,30.50
2023-04-21T08:44:45.263Z,30.57
2023-04-21T08:50:12.347Z,30.87
2023-04-21T08:55:34.662Z,30.88
2023-04-21T09:00:56.593Z,30.98
2023-04-21T09:06:19.038Z,30.96
2023-04-21T09:11:40.928Z,30.96
2023-04-21T09:17:04.721Z,30.90
2023-04-21T09:22:29.499Z,31.18
2023-04-21T09:27:54.045Z,31.36
2023-04-21T09:33:27.833Z,31.42
2023-04-21T09:39:20.597Z,31.12
2023-04-21T09:44:50.896Z,31.34
2023-04-21T09:50:41.802Z,31.42
2023-04-21T09:56:04.752Z,31.47
2023-04-21T10:01:29.786Z,31.50
2023-04-21T10:06:52.082Z,31.42
2023-04-21T10:12:15.391Z,31.74
2023-04-21T10:17:37.471Z,31.86
2023-04-21T10:22:59.359Z,31.53
2023-04-21T10:28:21.295Z,31.88
2023-04-21T10:33:43.043Z,31.84
2023-04-21T10:39:04.948Z,31.46
2023-04-21T10:44:29.297Z,31.66
2023-04-21T10:49:51.215Z,32.01
2023-04-21T10:55:16.226Z,31.89
2023-04-21T11:00:39.533Z,31.78
2023-04-21T11:06:14.533Z,32.10
2023-04-21T11:11:36.997Z,31.99
2023-04-21T11:16:59.021Z,31.87
2023-04-21T11:22:22.944Z,32.20
2023-04-21T11:27:54.303Z,31.76
2023-04-21T11:33:16.184Z,31.85
2023-04-21T11:38:42.042Z,32.06
2023-04-21T11:44:03.932Z,31.90
2023-04-21T11:49:29.756Z,31.95
2023-04-21T11:55:00.032Z,31.93
2023-04-21T12:00:22.268Z,31.87
2023-04-21T12:05:44.176Z,31.87
2023-04-21T12:11:05.994Z,31.94
2023-04-21T12:16:29.693Z,32.38
2023-04-21T12:21:56.739Z,32.56
2023-04-21T12:27:19.448Z,32.33
2023-04-21T12:32:41.746Z,32.55
2023-04-21T12:38:03.674Z,32.41
2023-04-21T12:43:25.877Z,32.73
2023-04-21T12:48:49.233Z,32.60
2023-04-21T12:54:12.167Z,32.34
2023-04-21T12:59:34.070Z,32.36
2023-04-21T13:04:55.893Z,32.48
2023-04-21T13:10:17.670Z,32.06
2023-04-21T13:15:39.715Z,32.41
2023-04-21T13:21:01.621Z,31.95
2023-04-21T13:26:24.040Z,31.83
2023-04-21T13:31:46.056Z,31.80
2023-04-21T13:37:11.042Z,32.15
2023-04-21T13:42:34.001Z,32.18
2023-04-21T13:47:55.985Z,31.70
2023-04-21T13:53:19.889Z,31.78
2023-04-21T13:58:43.698Z,31.99
2023-04-21T14:04:05.858Z,32.01
2023-04-21T14:09:28.387Z,31.88
2023-04-21T14:14:50.127Z,31.89
2023-04-21T14:20:12.263Z,31.53
2023-04-21T14:25:34.118Z,31.81
2023-04-21T14:30:56.334Z,31.74
2023-04-21T14:36:18.300Z,31.67
2023-04-21T14:41:40.109Z,31.45
2023-04-21T14:47:09.770Z,31.41
2023-04-21T14:52:32.706Z,31.47
2023-04-21T14:57:54.574Z,31.25
2023-04-21T15:03:16.490Z,31.28
2023-04-21T15:08:38.379Z,31.29
2023-04-21T15:14:00.278Z,31.60
2023-04-21T15:19:23.999Z,31.76
2023-04-21T15:24:47.317Z,31.78
2023-04-21T15:30:09.609Z,31.77
2023-04-21T15:35:31.369Z,31.47
2023-04-21T15:46:21.364Z,31.88
2023-04-21T15:51:43.326Z,31.99
2023-04-21T15:57:06.039Z,31.79
2023-04-21T16:02:28.111Z,31.64
2023-04-21T16:07:50.123Z,31.62
2023-04-21T16:13:12.105Z,31.59
2023-04-21T16:18:33.929Z,31.96
2023-04-21T16:23:55.847Z,31.95
2023-04-21T16:29:17.822Z,31.57
2023-04-21T16:34:39.982Z,31.90
2023-04-21T16:40:02.526Z,31.95
2023-04-21T16:45:24.688Z,32.15
2023-04-21T16:50:46.637Z,32.08
2023-04-21T16:56:08.834Z,31.69
2023-04-21T17:01:30.747Z,31.93
2023-04-21T17:06:52.613Z,31.72
2023-04-21T17:12:14.392Z,31.58
2023-04-21T17:17:42.149Z,31.82
2023-04-21T17:23:04.062Z,32.18
2023-04-21T17:28:26.255Z,32.30
2023-04-21T17:33:48.142Z,32.01
2023-04-21T17:39:10.800Z,32.57
2023-04-21T17:44:32.735Z,32.80
2023-04-21T17:49:54.594Z,32.85
2023-04-21T17:55:17.647Z,32.71
2023-04-21T18:00:39.579Z,33.13
2023-04-21T18:06:02.284Z,33.03
2023-04-21T18:11:24.110Z,33.00
2023-04-21T18:16:45.932Z,33.23
2023-04-21T18:22:10.934Z,33.24
2023-04-21T18:27:32.838Z,32.99
2023-04-21T18:32:54.703Z,32.67
2023-04-21T18:38:16.604Z,32.64
2023-04-21T18:43:38.474Z,32.74
2023-04-21T18:49:00.308Z,32.86
2023-04-21T18:54:22.187Z,32.99
2023-04-21T18:59:44.239Z,32.94
2023-04-21T19:05:09.437Z,32.61
2023-04-21T19:10:34.559Z,32.60
2023-04-21T19:15:56.652Z,33.11
2023-04-21T19:21:18.634Z,33.17
2023-04-21T19:26:40.795Z,33.70
2023-04-21T19:32:03.281Z,33.82
2023-04-21T19:37:26.585Z,34.53
2023-04-21T19:42:48.375Z,34.46
2023-04-21T19:48:10.256Z,34.89
2023-04-21T19:53:32.186Z,35.18
2023-04-21T19:58:53.983Z,35.31
2023-04-21T20:04:16.877Z,35.02
2023-04-21T20:09:39.769Z,35.17
2023-04-21T20:15:02.049Z,35.10
2023-04-21T20:20:23.856Z,34.88
2023-04-21T20:25:46.092Z,34.88
2023-04-21T20:31:07.962Z,34.58
2023-04-21T20:36:29.969Z,34.54
2023-04-21T20:42:04.726Z,34.94
2023-04-21T20:47:34.220Z,35.45
2023-04-21T20:52:55.972Z,36.07
2023-04-21T20:58:19.091Z,36.68
2023-04-21T21:03:41.032Z,36.57
2023-04-21T21:09:03.066Z,37.11
2023-04-21T21:14:25.833Z,37.31
2023-04-21T21:19:47.659Z,37.68
2023-04-21T21:25:09.797Z,37.94
2023-04-21T21:30:31.567Z,38.28
2023-04-21T21:35:53.715Z,38.13
2023-04-21T21:41:17.086Z,38.74
2023-04-21T21:46:39.114Z,38.70
2023-04-21T21:52:02.342Z,38.79
2023-04-21T21:57:24.519Z,39.02
2023-04-21T22:02:46.872Z,39.07
2023-04-21T22:08:08.760Z,39.31
2023-04-21T22:13:30.750Z,39.50
2023-04-21T22:18:52.524Z,39.68
2023-04-21T22:24:14.742Z,39.64
2023-04-21T22:29:38.324Z,40.01
2023-04-21T22:35:01.541Z,40.00
2023-04-21T22:40:23.379Z,40.20
2023-04-21T22:45:45.258Z,40.45
2023-04-21T22:51:07.620Z,40.41
2023-04-21T22:56:31.119Z,40.32
2023-04-21T23:01:52.915Z,40.45
2023-04-21T23:07:14.987Z,40.24
2023-04-21T23:12:36.933Z,40.26
2023-04-21T23:17:58.775Z,40.46
2023-04-21T23:23:20.758Z,40.31
2023-04-21T23:28:42.526Z,40.53
2023-04-21T23:34:04.382Z,40.86
2023-04-21T23:39:26.222Z,40.59
2023-04-21T23:44:48.046Z,40.88
2023-04-21T23:50:10.555Z,40.87
2023-04-21T23:55:32.421Z,40.54
